createdAt,value
2022-09-10T00:03:56.557Z,14.77
2022-09-10T00:09:01.409Z,10.25
2022-09-10T00:14:08.975Z,12.32
2022-09-10T00:19:13.108Z,11.40
2022-09-10T00:24:17.170Z,15.68
2022-09-10T00:29:21.988Z,15.95
2022-09-10T00:34:25.478Z,17.55
2022-09-10T00:39:29.308Z,16.45
2022-09-10T00:45:01.277Z,17.45
2022-09-10T00:50:13.708Z,19.63
2022-09-10T00:55:18.429Z,19.23
2022-09-10T01:00:23.826Z,17.02
2022-09-10T01:05:29.319Z,27.30
2022-09-10T01:10:42.462Z,18.58
2022-09-10T01:15:53.881Z,16.25
2022-09-10T01:21:06.268Z,23.38
2022-09-10T01:26:23.422Z,21.15
2022-09-10T01:31:34.950Z,24.02
2022-09-10T01:36:48.088Z,24.05
2022-09-10T01:41:55.551Z,28.73
2022-09-10T01:47:12.909Z,22.17
2022-09-10T01:52:28.651Z,28.15
2022-09-10T01:57:44.996Z,23.90
2022-09-10T02:02:53.585Z,23.15
2022-09-10T02:08:02.259Z,26.17
2022-09-10T02:13:06.988Z,24.50
2022-09-10T02:18:34.556Z,27.17
2022-09-10T02:23:44.276Z,20.45
2022-09-10T02:28:51.318Z,22.80
2022-09-10T02:33:56.678Z,22.88
2022-09-10T02:39:04.217Z,26.08
2022-09-10T02:44:08.915Z,31.98
2022-09-10T02:49:15.121Z,23.67
2022-09-10T02:54:20.537Z,23.58
2022-09-10T02:59:24.303Z,22.65
2022-09-10T03:04:29.197Z,22.13
2022-09-10T03:09:32.717Z,21.27
2022-09-10T03:14:36.174Z,20.67
2022-09-10T03:19:42.209Z,25.13
2022-09-10T03:24:47.155Z,23.52
2022-09-10T03:29:50.653Z,22.98
2022-09-10T03:34:55.747Z,24.77
2022-09-10T03:39:59.416Z,24.65
2022-09-10T03:45:03.023Z,25.60
2022-09-10T03:50:09.677Z,21.95
2022-09-10T03:55:13.453Z,27.10
2022-09-10T04:00:17.955Z,24.42
2022-09-10T04:05:27.602Z,24.85
2022-09-10T04:10:31.338Z,24.25
2022-09-10T04:15:35.555Z,24.17
2022-09-10T04:20:42.276Z,23.23
2022-09-10T04:25:47.707Z,23.73
2022-09-10T04:30:51.471Z,20.63
2022-09-10T04:36:00.494Z,23.48
2022-09-10T04:41:04.231Z,22.48
2022-09-10T04:46:08.231Z,22.80
2022-09-10T04:51:18.157Z,21.13
2022-09-10T04:56:28.251Z,20.48
2022-09-10T05:01:31.770Z,20.92
2022-09-10T05:06:36.697Z,19.05
2022-09-10T05:11:42.806Z,18.98
2022-09-10T05:16:47.403Z,21.08
2022-09-10T05:21:52.998Z,24.92
2022-09-10T05:26:57.148Z,22.65
2022-09-10T05:32:00.683Z,20.30
2022-09-10T05:37:06.065Z,17.60
2022-09-10T05:42:10.303Z,20.60
2022-09-10T05:47:14.798Z,21.63
2022-09-10T05:52:19.897Z,22.52
2022-09-10T05:57:24.153Z,24.10
2022-09-10T06:02:27.902Z,30.85
2022-09-10T06:07:34.670Z,28.08
2022-09-10T06:12:40.203Z,25.65
2022-09-10T06:17:43.985Z,23.92
2022-09-10T06:22:48.836Z,21.33
2022-09-10T06:27:52.440Z,19.27
2022-09-10T06:32:57.307Z,21.10
2022-09-10T06:38:02.604Z,24.40
2022-09-10T06:43:11.163Z,26.15
2022-09-10T06:48:44.437Z,27.48
2022-09-10T06:53:53.303Z,31.10
2022-09-10T06:59:02.217Z,31.13
2022-09-10T07:04:11.913Z,40.47
2022-09-10T07:09:17.383Z,34.65
2022-09-10T07:14:32.355Z,30.27
2022-09-10T07:19:38.786Z,36.53
2022-09-10T07:25:03.831Z,31.17
2022-09-10T07:30:17.749Z,40.70
2022-09-10T07:35:22.603Z,57.75
2022-09-10T07:40:28.803Z,37.47
2022-09-10T07:45:33.378Z,37.25
2022-09-10T07:50:39.905Z,34.30
2022-09-10T07:55:45.300Z,34.30
2022-09-10T08:00:50.485Z,34.15
2022-09-10T08:05:55.086Z,30.08
2022-09-10T08:11:11.789Z,34.33
2022-09-10T08:16:20.001Z,26.50
2022-09-10T08:21:24.975Z,28.92
2022-09-10T08:26:33.608Z,27.23
2022-09-10T08:31:38.705Z,29.27
2022-09-10T08:36:48.817Z,26.67
2022-09-10T08:41:59.711Z,26.58
2022-09-10T08:47:14.821Z,43.22
2022-09-10T08:52:25.027Z,30.27
2022-09-10T08:57:36.354Z,29.15
2022-09-10T09:07:58.628Z,26.92
2022-09-10T09:13:41.717Z,29.95
2022-09-10T09:19:06.662Z,36.58
2022-09-10T09:24:24.037Z,30.42
2022-09-10T09:29:35.811Z,35.13
2022-09-10T09:34:45.003Z,24.90
2022-09-10T09:45:21.645Z,34.28
2022-09-10T09:50:25.771Z,29.13
2022-09-10T09:55:34.040Z,32.08
2022-09-10T10:00:39.405Z,27.75
2022-09-10T10:05:43.550Z,24.25
2022-09-10T10:10:54.006Z,23.20
2022-09-10T10:16:16.703Z,28.03
2022-09-10T10:21:22.374Z,22.65
2022-09-10T10:26:31.559Z,21.15
2022-09-10T10:31:42.508Z,38.42
2022-09-10T10:36:53.451Z,13.38
2022-09-10T10:42:06.942Z,14.00
2022-09-10T10:47:38.116Z,13.43
2022-09-10T10:58:10.656Z,13.27
2022-09-10T11:03:20.297Z,13.55
2022-09-10T11:08:33.385Z,14.48
2022-09-10T11:13:43.519Z,14.50
2022-09-10T11:18:54.184Z,16.93
2022-09-10T11:24:02.517Z,17.05
2022-09-10T11:29:22.405Z,46.13
2022-09-10T11:34:35.649Z,14.48
2022-09-10T11:39:44.482Z,11.93
2022-09-10T11:44:58.190Z,16.35
2022-09-10T11:50:10.380Z,13.77
2022-09-10T11:55:17.756Z,11.90
2022-09-10T12:00:22.455Z,13.65
2022-09-10T12:05:35.641Z,14.35
2022-09-10T12:10:47.849Z,15.15
2022-09-10T12:15:56.207Z,17.80
2022-09-10T12:21:07.132Z,5.10
2022-09-10T12:26:13.249Z,8.25
2022-09-10T12:31:18.855Z,4.85
2022-09-10T12:36:55.911Z,4.72
2022-09-10T12:42:02.926Z,4.10
2022-09-10T12:47:40.513Z,4.82
2022-09-10T12:52:55.772Z,4.93
2022-09-10T12:58:06.351Z,6.13
2022-09-10T13:03:17.109Z,4.40
2022-09-10T13:08:25.434Z,4.60
2022-09-10T13:13:37.551Z,4.97
2022-09-10T13:18:42.196Z,5.45
2022-09-10T13:23:48.527Z,8.48
2022-09-10T13:29:09.345Z,9.20
2022-09-10T13:34:34.634Z,6.32
2022-09-10T13:40:14.373Z,8.45
2022-09-10T13:45:29.374Z,7.82
2022-09-10T13:50:39.179Z,2.83
2022-09-10T13:55:52.215Z,4.90
2022-09-10T14:01:01.021Z,4.75
2022-09-10T14:06:07.729Z,4.65
2022-09-10T14:11:20.289Z,15.13
2022-09-10T14:16:30.460Z,6.72
2022-09-10T14:21:34.355Z,5.40
2022-09-10T14:26:37.937Z,6.65
2022-09-10T14:31:42.878Z,6.55
2022-09-10T14:36:46.553Z,4.90
2022-09-10T14:41:50.933Z,5.13
2022-09-10T14:46:58.519Z,4.95
2022-09-10T14:52:03.631Z,4.82
2022-09-10T14:57:13.227Z,4.22
2022-09-10T15:02:21.022Z,3.83
2022-09-10T15:07:25.159Z,2.85
2022-09-10T15:12:31.190Z,4.07
2022-09-10T15:17:37.426Z,5.53
2022-09-10T15:22:41.217Z,19.67
2022-09-10T15:27:44.750Z,5.93
2022-09-10T15:32:49.633Z,4.75
2022-09-10T15:37:53.291Z,4.07
2022-09-10T15:42:57.893Z,5.25
2022-09-10T15:48:03.249Z,2.40
2022-09-10T15:53:10.436Z,4.22
2022-09-10T15:58:15.475Z,5.00
2022-09-10T16:03:20.722Z,4.18
2022-09-10T16:08:24.236Z,3.75
2022-09-10T16:13:27.850Z,5.75
2022-09-10T16:18:33.775Z,8.23
2022-09-10T16:23:38.429Z,3.75
2022-09-10T16:28:43.305Z,3.65
2022-09-10T16:33:52.776Z,45.75
2022-09-10T16:39:01.738Z,7.72
2022-09-10T16:44:05.965Z,5.38
2022-09-10T16:49:13.915Z,8.65
2022-09-10T16:54:19.884Z,7.90
2022-09-10T16:59:25.940Z,4.75
2022-09-10T17:04:33.754Z,8.88
2022-09-10T17:09:37.185Z,8.60
2022-09-10T17:14:40.711Z,8.35
2022-09-10T17:19:45.661Z,9.38
2022-09-10T17:24:50.070Z,9.20
2022-09-10T17:29:54.236Z,10.95
2022-09-10T17:34:59.457Z,10.85
2022-09-10T17:40:03.375Z,11.55
2022-09-10T17:45:08.045Z,14.88
2022-09-10T17:50:13.046Z,12.68
2022-09-10T17:55:16.789Z,8.43
2022-09-10T18:00:21.085Z,8.77
2022-09-10T18:05:26.485Z,10.07
2022-09-10T18:10:30.009Z,7.88
2022-09-10T18:15:33.733Z,14.60
2022-09-10T18:20:39.988Z,23.88
2022-09-10T18:25:49.568Z,10.18
2022-09-10T18:30:53.389Z,9.38
2022-09-10T18:35:58.302Z,16.98
2022-09-10T18:41:03.502Z,19.95
2022-09-10T18:46:07.211Z,17.42
2022-09-10T18:51:13.064Z,18.67
2022-09-10T18:56:19.071Z,19.95
2022-09-10T19:01:23.722Z,19.52
2022-09-10T19:06:30.844Z,19.38
2022-09-10T19:11:37.660Z,20.15
2022-09-10T19:16:42.087Z,20.33
2022-09-10T19:21:48.322Z,21.75
2022-09-10T19:26:51.852Z,18.92
2022-09-10T19:31:55.522Z,34.45
2022-09-10T19:37:00.412Z,19.38
2022-09-10T19:42:04.318Z,26.58
2022-09-10T19:47:08.216Z,30.35
2022-09-10T19:52:13.127Z,24.40
2022-09-10T19:57:16.795Z,19.00
2022-09-10T20:02:20.393Z,19.83
2022-09-10T20:07:25.699Z,21.17
2022-09-10T20:12:29.521Z,22.63
2022-09-10T20:17:34.259Z,24.83
2022-09-10T20:22:39.076Z,24.40
2022-09-10T20:27:42.546Z,22.65
2022-09-10T20:32:45.994Z,25.20
2022-09-10T20:37:51.856Z,25.02
2022-09-10T20:42:55.341Z,29.92
2022-09-10T20:48:00.346Z,28.50
2022-09-10T20:53:05.177Z,26.27
2022-09-10T20:58:08.696Z,24.88
2022-09-10T21:03:13.054Z,24.33
2022-09-10T21:08:17.849Z,31.48
2022-09-10T21:13:24.576Z,49.42
2022-09-10T21:18:28.663Z,58.38
2022-09-10T21:23:33.471Z,29.15
2022-09-10T21:28:36.959Z,28.58
2022-09-10T21:33:40.977Z,21.65
2022-09-10T21:38:49.342Z,25.60
2022-09-10T21:43:52.988Z,29.30
2022-09-10T21:48:57.043Z,25.27
2022-09-10T21:54:02.000Z,23.00
2022-09-10T21:59:05.488Z,22.23
2022-09-10T22:04:08.952Z,24.33
2022-09-10T22:09:16.812Z,31.10
2022-09-10T22:14:21.996Z,25.42
2022-09-10T22:19:27.333Z,23.63
2022-09-10T22:24:32.222Z,24.15
2022-09-10T22:29:35.602Z,19.95
2022-09-10T22:34:39.125Z,21.25
2022-09-10T22:39:43.971Z,25.65
2022-09-10T22:44:47.417Z,21.80
2022-09-10T22:49:50.896Z,27.80
2022-09-10T22:54:55.875Z,25.88
2022-09-10T22:59:59.463Z,25.20
2022-09-10T23:05:02.869Z,27.58
2022-09-10T23:10:08.421Z,28.27
2022-09-10T23:15:12.011Z,27.52
2022-09-10T23:20:15.685Z,30.83
2022-09-10T23:25:20.638Z,31.73
2022-09-10T23:30:24.107Z,32.45
2022-09-10T23:35:27.834Z,25.55
2022-09-10T23:40:34.284Z,29.25
2022-09-10T23:45:37.920Z,27.92
2022-09-10T23:50:41.394Z,25.35
2022-09-10T23:55:46.469Z,32.17
